Time;durP1;ratioP1;P1;durP2;ratioP2;P2;SDS_P1;SDS_P2;PMS_P1;PMS_P2;Temp;Humidity;BMP_temperature;BMP_pressure;BME280_temperature;BME280_humidity;BME280_pressure;Samples;Min_cycle;Max_cycle;Signal;HPM_P1;HPM_P2
2022/12/09 00:00:22;;;;;;;;;;;;;;;1.43;72.67;97048.53;5009358;28;19956;-73
2022/12/09 00:05:50;;;;;;;;;;;;;;;1.45;72.76;97043.72;4990006;28;20414;-74
2022/12/09 00:08:19;;;;;;;;;;;;;;;1.35;72.34;97041.06;5009184;28;20372;-73
2022/12/09 00:10:47;;;;;;;;;;;;;;;1.30;73.04;97041.09;5007903;28;19930;-74
2022/12/09 00:13:16;;;;;;;;;;;;;;;1.29;72.63;97034.94;4994374;28;19934;-78
2022/12/09 00:15:44;;;;;;;;;;;;;;;1.27;72.61;97042.44;4973369;28;19926;-73
2022/12/09 00:18:14;;;;;;;;;;;;;;;1.22;72.85;97038.97;4974938;28;19925;-73
2022/12/09 00:20:42;;;;;;;;;;;;;;;1.22;73.09;97044.31;5003362;28;20457;-73
2022/12/09 00:23:10;;;;;;;;;;;;;;;1.26;72.79;97048.06;4988082;28;19922;-73
2022/12/09 00:25:39;;;;;;;;;;;;;;;1.28;72.90;97043.25;4996648;28;19922;-73
2022/12/09 00:28:07;;;;;;;;;;;;;;;1.26;72.72;97046.19;4977003;28;20371;-74
2022/12/09 00:30:35;;;;;;;;;;;;;;;1.23;73.01;97040.59;4975275;28;20375;-74
2022/12/09 00:33:04;;;;;;;;;;;;;;;1.29;72.86;97039.50;4974768;28;19929;-74
2022/12/09 00:35:34;;;;;;;;;;;;;;;0.96;73.90;97031.03;4991386;28;19921;-73
2022/12/09 00:38:03;;;;;;;;;;;;;;;0.89;74.22;97030.50;4973500;28;19922;-73
2022/12/09 00:40:32;;;;;;;;;;;;;;;0.82;74.48;97029.19;5006805;28;19928;-74
2022/12/09 00:43:01;;;;;;;;;;;;;;;1.07;73.77;97025.66;5006400;28;19921;-74
2022/12/09 00:45:32;;;;;;;;;;;;;;;1.08;73.50;97028.06;4973047;28;19928;-72
2022/12/09 00:48:00;;;;;;;;;;;;;;;1.05;73.03;97018.69;4972136;28;19932;-77
2022/12/09 00:50:28;;;;;;;;;;;;;;;1.03;73.67;97023.50;4974575;28;19932;-74
2022/12/09 00:53:00;;;;;;;;;;;;;;;1.04;73.82;97022.44;4991365;28;19929;-73
2022/12/09 00:55:28;;;;;;;;;;;;;;;0.98;73.70;97023.53;4973794;28;19925;-73
2022/12/09 00:57:59;;;;;;;;;;;;;;;0.77;74.27;97016.63;4974886;28;19936;-73
2022/12/09 01:00:32;;;;;;;;;;;;;;;0.75;74.37;97021.44;4995438;28;20139;-73
2022/12/09 01:03:04;;;;;;;;;;;;;;;0.84;74.24;97022.47;4978432;28;19937;-73
2022/12/09 01:05:34;;;;;;;;;;;;;;;0.89;74.21;97030.50;5003413;28;19926;-74
2022/12/09 01:08:03;;;;;;;;;;;;;;;0.82;74.51;97023.81;4976093;28;19926;-74
2022/12/09 01:10:33;;;;;;;;;;;;;;;0.74;74.17;97030.50;4978516;28;20024;-73
2022/12/09 01:13:02;;;;;;;;;;;;;;;0.65;75.08;97032.94;5010995;28;19926;-73
2022/12/09 01:15:30;;;;;;;;;;;;;;;0.57;74.91;97032.66;4995004;28;20387;-74
2022/12/09 01:17:58;;;;;;;;;;;;;;;0.59;75.39;97030.53;4995257;28;20427;-74
2022/12/09 01:20:27;;;;;;;;;;;;;;;0.58;75.02;97035.06;5010307;28;19988;-73
2022/12/09 01:22:55;;;;;;;;;;;;;;;0.63;74.94;97026.25;4975967;28;19969;-73
2022/12/09 01:25:26;;;;;;;;;;;;;;;0.45;75.47;97028.41;4995244;28;19972;-74
2022/12/09 01:27:55;;;;;;;;;;;;;;;0.41;75.31;97021.19;4992693;28;19956;-73
2022/12/09 01:30:48;;;;;;;;;;;;;;;0.54;75.33;97028.69;4994733;28;20036;-74
2022/12/09 01:33:17;;;;;;;;;;;;;;;0.39;75.63;97026.81;5009702;28;19934;-73
2022/12/09 01:35:46;;;;;;;;;;;;;;;0.55;75.08;97027.59;4997880;28;19926;-73
2022/12/09 01:38:17;;;;;;;;;;;;;;;0.47;75.01;97018.22;4980550;28;20014;-73
2022/12/09 01:40:46;;;;;;;;;;;;;;;0.49;75.07;97021.47;4989366;28;19933;-74
2022/12/09 01:43:17;;;;;;;;;;;;;;;0.39;75.67;97018.78;4978479;28;19933;-72
2022/12/09 01:45:45;;;;;;;;;;;;;;;0.42;75.26;97007.53;4975791;28;19925;-73
2022/12/09 01:48:14;;;;;;;;;;;;;;;0.17;75.97;97007.56;4999616;28;20295;-73
2022/12/09 01:50:45;;;;;;;;;;;;;;;0.39;75.24;97010.78;4974672;28;19929;-72
2022/12/09 01:53:14;;;;;;;;;;;;;;;0.39;75.41;97001.97;4992024;28;19926;-73
2022/12/09 01:55:47;;;;;;;;;;;;;;;0.29;75.78;96994.75;4999239;28;19995;-73
2022/12/09 01:58:17;;;;;;;;;;;;;;;0.26;75.88;96989.91;4994536;28;20395;-72
2022/12/09 02:00:46;;;;;;;;;;;;;;;0.19;76.24;96990.19;5006970;28;19937;-73
2022/12/09 02:03:14;;;;;;;;;;;;;;;0.18;76.55;96979.78;4975103;28;19926;-73
2022/12/09 02:05:43;;;;;;;;;;;;;;;0.15;76.46;96977.63;5008475;28;19930;-73
2022/12/09 02:08:13;;;;;;;;;;;;;;;0.27;76.02;96972.84;4974284;28;19926;-74
2022/12/09 02:10:46;;;;;;;;;;;;;;;0.33;75.71;96965.63;4997595;28;20016;-73
2022/12/09 02:13:18;;;;;;;;;;;;;;;0.29;75.43;96957.34;5005781;28;19929;-73
2022/12/09 02:15:47;;;;;;;;;;;;;;;0.26;75.57;96964.00;5006952;28;20020;-74
2022/12/09 02:18:16;;;;;;;;;;;;;;;0.12;76.23;96956.81;4980679;28;19926;-73
2022/12/09 02:20:45;;;;;;;;;;;;;;;-0.08;76.77;96950.41;5002981;28;19933;-73
2022/12/09 02:23:15;;;;;;;;;;;;;;;0.09;76.54;96952.00;4971808;28;19930;-73
2022/12/09 02:25:45;;;;;;;;;;;;;;;0.18;76.09;96955.75;4974535;28;19925;-72
2022/12/09 02:28:26;;;;;;;;;;;;;;;0.13;76.12;96958.41;4972083;28;19929;-73
2022/12/09 02:30:58;;;;;;;;;;;;;;;0.12;76.60;96954.94;5004586;28;19926;-73
2022/12/09 02:36:30;;;;;;;;;;;;;;;0.13;77.11;96969.91;5007465;28;19930;-73
2022/12/09 02:38:59;;;;;;;;;;;;;;;0.07;76.44;96970.97;5004889;28;20002;-73
2022/12/09 02:41:29;;;;;;;;;;;;;;;-0.18;77.16;96963.72;4971307;28;19930;-73
2022/12/09 02:44:04;;;;;;;;;;;;;;;-0.01;77.04;96963.47;5002659;28;19957;-73
2022/12/09 02:49:25;;;;;;;;;;;;;;;-0.08;76.90;96958.41;4978543;28;19976;-73
2022/12/09 02:51:54;;;;;;;;;;;;;;;-0.04;76.28;96954.13;4980729;28;19933;-73
2022/12/09 02:54:24;;;;;;;;;;;;;;;-0.36;77.23;96950.91;4997415;28;19934;-73
2022/12/09 02:56:53;;;;;;;;;;;;;;;-0.38;77.68;96948.47;5004585;28;20243;-73
2022/12/09 02:59:23;;;;;;;;;;;;;;;-0.39;77.86;96940.75;4966147;28;19926;-76
2022/12/09 03:01:56;;;;;;;;;;;;;;;-0.36;77.98;96950.91;4972628;28;19926;-73
2022/12/09 03:04:24;;;;;;;;;;;;;;;-0.40;77.65;96955.16;4969563;28;19933;-73
2022/12/09 03:06:55;;;;;;;;;;;;;;;-0.26;77.64;96950.91;4973558;28;19976;-73
2022/12/09 03:09:24;;;;;;;;;;;;;;;-0.30;77.89;96947.97;4970101;28;19934;-74
2022/12/09 03:11:53;;;;;;;;;;;;;;;-0.22;77.53;96948.50;5002882;28;19926;-73
2022/12/09 03:14:21;;;;;;;;;;;;;;;-0.24;77.59;96943.44;4986511;28;19976;-73
2022/12/09 03:16:50;;;;;;;;;;;;;;;-0.10;77.48;96939.19;4972749;28;19949;-73
2022/12/09 03:19:20;;;;;;;;;;;;;;;0.02;77.25;96935.44;4972358;28;19969;-73
2022/12/09 03:21:49;;;;;;;;;;;;;;;0.12;76.72;96932.78;4971159;28;19933;-73
2022/12/09 03:24:25;;;;;;;;;;;;;;;0.16;76.97;96941.84;4976210;28;20022;-73
2022/12/09 03:26:53;;;;;;;;;;;;;;;0.12;77.18;96930.13;4972561;28;19926;-73
2022/12/09 03:29:23;;;;;;;;;;;;;;;0.17;77.22;96927.44;4978159;28;19973;-73
2022/12/09 03:31:51;;;;;;;;;;;;;;;0.12;76.87;96928.25;4973048;28;19930;-73
2022/12/09 03:34:22;;;;;;;;;;;;;;;0.23;77.15;96929.03;4975615;28;20289;-73
2022/12/09 03:37:17;;;;;;;;;;;;;;;0.16;77.08;96923.13;4977187;28;19926;-73
2022/12/09 03:39:50;;;;;;;;;;;;;;;0.14;76.84;96918.06;4971897;28;19926;-72
2022/12/09 03:42:18;;;;;;;;;;;;;;;0.34;76.46;96917.25;4981934;28;19925;-72
2022/12/09 03:47:40;;;;;;;;;;;;;;;0.23;76.52;96908.47;4966867;28;19939;-74
2022/12/09 03:50:12;;;;;;;;;;;;;;;0.34;76.00;96903.09;4979762;28;19926;-75
2022/12/09 03:52:40;;;;;;;;;;;;;;;0.25;76.89;96908.19;4975297;28;19965;-73
2022/12/09 03:55:13;;;;;;;;;;;;;;;0.36;76.15;96916.97;4974871;28;19926;-73
2022/12/09 03:57:42;;;;;;;;;;;;;;;0.24;76.29;96920.75;4990262;28;19934;-73
2022/12/09 04:00:16;;;;;;;;;;;;;;;0.23;76.69;96921.03;4968436;28;19927;-73
2022/12/09 04:02:47;;;;;;;;;;;;;;;0.23;76.05;96921.03;4971218;28;19932;-73
2022/12/09 04:05:15;;;;;;;;;;;;;;;0.33;75.95;96918.34;4973879;28;20243;-73
2022/12/09 04:07:43;;;;;;;;;;;;;;;0.38;75.66;96912.97;4978061;28;19926;-73
2022/12/09 04:10:13;;;;;;;;;;;;;;;0.51;75.48;96916.97;4962278;28;19972;-73
2022/12/09 04:12:42;;;;;;;;;;;;;;;0.16;75.75;96909.78;4982884;28;19937;-72
2022/12/09 04:15:10;;;;;;;;;;;;;;;0.13;75.90;96895.13;4973113;28;19937;-73
2022/12/09 04:17:38;;;;;;;;;;;;;;;0.29;75.19;96903.91;4954442;28;19934;-73
2022/12/09 04:20:07;;;;;;;;;;;;;;;0.30;75.22;96910.06;4988337;28;20424;-73
2022/12/09 04:22:36;;;;;;;;;;;;;;;0.30;74.78;96899.38;4974420;28;19926;-73
2022/12/09 04:25:04;;;;;;;;;;;;;;;0.25;74.39;96905.50;4974692;28;19966;-73
2022/12/09 04:27:34;;;;;;;;;;;;;;;0.23;75.74;96905.00;4967962;28;19949;-73
2022/12/09 04:30:02;;;;;;;;;;;;;;;0.28;75.25;96901.50;4960077;28;19926;-72
2022/12/09 04:32:32;;;;;;;;;;;;;;;0.26;74.62;96899.88;4952105;28;19931;-73
2022/12/09 04:35:00;;;;;;;;;;;;;;;0.16;74.73;96899.94;4982905;28;20059;-76
2022/12/09 04:38:17;;;;;;;;;;;;;;;0.28;74.88;96901.50;4979048;28;19933;-74
2022/12/09 04:41:10;;;;;;;;;;;;;;;0.05;75.55;96902.84;4985553;28;19929;-76
2022/12/09 04:43:40;;;;;;;;;;;;;;;0.08;75.17;96907.69;4984086;28;20307;-73
2022/12/09 04:46:10;;;;;;;;;;;;;;;0.05;75.56;96900.19;4989276;28;19926;-73
2022/12/09 04:48:39;;;;;;;;;;;;;;;0.01;75.40;96899.16;4966733;28;19958;-73
2022/12/09 04:51:07;;;;;;;;;;;;;;;0.14;75.45;96887.91;4978917;28;19934;-75
2022/12/09 04:53:36;;;;;;;;;;;;;;;0.21;75.91;96888.41;4969408;28;20295;-73
2022/12/09 04:56:29;;;;;;;;;;;;;;;0.31;75.69;96892.94;4981173;28;19926;-74
2022/12/09 04:58:59;;;;;;;;;;;;;;;0.28;75.43;96886.28;4978364;28;19949;-73
2022/12/09 05:01:51;;;;;;;;;;;;;;;0.25;75.38;96886.81;4966394;28;19930;-73
2022/12/09 05:04:19;;;;;;;;;;;;;;;0.38;75.71;96886.28;4998323;28;20287;-73
2022/12/09 05:06:48;;;;;;;;;;;;;;;0.37;75.29;96879.31;4993531;28;19977;-74
2022/12/09 05:09:16;;;;;;;;;;;;;;;0.27;75.72;96876.69;4961397;28;20302;-73
2022/12/09 05:11:44;;;;;;;;;;;;;;;0.24;76.04;96874.53;4970362;28;19941;-73
2022/12/09 05:14:14;;;;;;;;;;;;;;;0.35;75.58;96876.09;4956571;28;19926;-74
2022/12/09 05:16:42;;;;;;;;;;;;;;;0.34;75.63;96874.50;4969822;28;20407;-73
2022/12/09 05:19:11;;;;;;;;;;;;;;;0.35;75.45;96864.63;4974011;28;19930;-74
2022/12/09 05:21:39;;;;;;;;;;;;;;;0.35;75.90;96862.75;4956654;28;19957;-75
2022/12/09 05:24:07;;;;;;;;;;;;;;;0.25;76.27;96862.78;4956321;28;19934;-76
2022/12/09 05:26:35;;;;;;;;;;;;;;;0.30;76.32;96868.09;4985649;28;19927;-73
2022/12/09 05:29:09;;;;;;;;;;;;;;;0.24;76.43;96859.31;4989556;28;20364;-74
2022/12/09 05:32:02;;;;;;;;;;;;;;;0.17;76.71;96855.31;4989307;28;19932;-77
2022/12/09 05:34:34;;;;;;;;;;;;;;;0.24;76.76;96853.97;4987338;28;19980;-73
2022/12/09 05:37:03;;;;;;;;;;;;;;;0.21;76.85;96856.34;4998959;28;20028;-74
2022/12/09 05:39:31;;;;;;;;;;;;;;;0.24;76.80;96845.94;4982723;28;19996;-73
2022/12/09 05:42:00;;;;;;;;;;;;;;;0.34;76.47;96845.13;4988134;28;19933;-74
2022/12/09 05:44:29;;;;;;;;;;;;;;;0.30;76.49;96838.72;4989353;28;20029;-73
2022/12/09 05:46:57;;;;;;;;;;;;;;;0.33;76.15;96837.38;4978076;28;20296;-73
2022/12/09 05:49:25;;;;;;;;;;;;;;;0.35;76.27;96836.03;4971554;28;20370;-74
2022/12/09 05:51:55;;;;;;;;;;;;;;;0.33;76.04;96830.19;4988530;28;19926;-74
2022/12/09 05:54:26;;;;;;;;;;;;;;;0.26;76.21;96824.28;4985960;28;20264;-74
2022/12/09 05:56:55;;;;;;;;;;;;;;;0.28;76.28;96821.38;4986719;28;19934;-74
2022/12/09 05:59:24;;;;;;;;;;;;;;;0.36;76.30;96815.47;4991520;28;19934;-74
2022/12/09 06:01:53;;;;;;;;;;;;;;;0.24;76.27;96811.22;4974399;28;20287;-73
2022/12/09 06:04:22;;;;;;;;;;;;;;;0.17;76.41;96815.25;4991467;28;19930;-75
2022/12/09 06:06:51;;;;;;;;;;;;;;;0.18;76.72;96808.84;5012996;28;19934;-72
2022/12/09 06:09:20;;;;;;;;;;;;;;;0.17;76.52;96815.25;4971799;28;21423;-72
2022/12/09 06:11:49;;;;;;;;;;;;;;;0.23;76.69;96814.16;5000779;28;19926;-72
2022/12/09 06:14:18;;;;;;;;;;;;;;;0.33;76.82;96824.84;4979722;28;19930;-75
2022/12/09 06:16:46;;;;;;;;;;;;;;;0.38;76.20;96821.34;4997239;28;19926;-72
2022/12/09 06:19:14;;;;;;;;;;;;;;;0.43;76.47;96824.81;4969787;28;20446;-74
2022/12/09 06:21:42;;;;;;;;;;;;;;;0.47;76.13;96820.50;4974298;28;19956;-75
2022/12/09 06:24:11;;;;;;;;;;;;;;;0.46;76.11;96818.91;4972808;28;20011;-72
2022/12/09 06:26:41;;;;;;;;;;;;;;;0.44;76.38;96812.25;5005174;28;19932;-74
2022/12/09 06:29:09;;;;;;;;;;;;;;;0.53;75.88;96818.59;4987765;28;19926;-73
2022/12/09 06:32:03;;;;;;;;;;;;;;;0.52;76.30;96807.09;4994155;28;19926;-73
2022/12/09 06:34:32;;;;;;;;;;;;;;;0.39;76.48;96802.38;4988110;28;19980;-73
2022/12/09 06:37:03;;;;;;;;;;;;;;;0.34;76.99;96793.56;4971227;28;19999;-73
2022/12/09 06:39:32;;;;;;;;;;;;;;;0.40;76.74;96797.81;4977326;28;19937;-72
2022/12/09 06:42:03;;;;;;;;;;;;;;;0.47;76.54;96799.13;4980482;28;19930;-72
2022/12/09 06:44:31;;;;;;;;;;;;;;;0.43;76.58;96800.75;4990457;28;20012;-72
2022/12/09 06:47:00;;;;;;;;;;;;;;;0.50;76.69;96798.56;4993009;28;19936;-72
2022/12/09 06:49:28;;;;;;;;;;;;;;;0.52;76.83;96793.75;4990706;28;19926;-73
2022/12/09 06:51:56;;;;;;;;;;;;;;;0.64;76.50;96806.00;4984608;28;19933;-73
2022/12/09 06:54:24;;;;;;;;;;;;;;;0.60;76.82;96808.44;4993242;28;19969;-73
2022/12/09 06:56:52;;;;;;;;;;;;;;;0.52;76.81;96800.97;4963297;28;19948;-73
2022/12/09 06:59:23;;;;;;;;;;;;;;;0.51;76.85;96805.50;4987203;28;19999;-73
2022/12/09 07:01:52;;;;;;;;;;;;;;;0.64;76.56;96803.31;4988274;28;20004;-74
2022/12/09 07:04:21;;;;;;;;;;;;;;;0.64;76.71;96800.66;4982429;28;19930;-74
2022/12/09 07:06:50;;;;;;;;;;;;;;;0.64;77.09;96803.31;5002840;28;19988;-73
2022/12/09 07:09:19;;;;;;;;;;;;;;;0.57;76.83;96810.84;4963306;28;19926;-76
2022/12/09 07:11:48;;;;;;;;;;;;;;;0.60;76.70;96807.63;5002207;28;19941;-77
2022/12/09 07:14:41;;;;;;;;;;;;;;;0.66;76.39;96803.84;4986712;28;20183;-76
2022/12/09 07:17:15;;;;;;;;;;;;;;;0.70;76.60;96813.72;4983535;28;19936;-76
2022/12/09 07:19:46;;;;;;;;;;;;;;;0.82;76.22;96810.72;4978638;28;20460;-76
2022/12/09 07:22:14;;;;;;;;;;;;;;;0.79;76.30;96811.25;5004739;28;20048;-76
2022/12/09 07:25:07;;;;;;;;;;;;;;;0.77;76.09;96816.91;4989405;28;19934;-75
2022/12/09 07:27:36;;;;;;;;;;;;;;;0.84;76.21;96813.91;4969891;28;19933;-75
2022/12/09 07:30:07;;;;;;;;;;;;;;;0.88;75.93;96806.16;4972007;28;19930;-76
2022/12/09 07:32:36;;;;;;;;;;;;;;;0.94;75.60;96811.19;4969234;28;19973;-76
2022/12/09 07:35:05;;;;;;;;;;;;;;;0.96;75.12;96801.03;4985556;28;19949;-76
2022/12/09 07:37:34;;;;;;;;;;;;;;;1.07;75.06;96806.31;4947411;28;19930;-76
2022/12/09 07:40:03;;;;;;;;;;;;;;;1.02;75.21;96815.97;4974176;28;19926;-76
2022/12/09 07:42:32;;;;;;;;;;;;;;;0.98;75.43;96814.13;4969395;28;19930;-76
2022/12/09 07:45:03;;;;;;;;;;;;;;;0.96;75.21;96805.56;4972912;28;19938;-76
2022/12/09 07:47:56;;;;;;;;;;;;;;;1.16;74.73;96810.00;4972580;28;20395;-76
2022/12/09 07:50:48;;;;;;;;;;;;;;;1.03;74.86;96811.41;4954871;28;19941;-77
2022/12/09 07:53:16;;;;;;;;;;;;;;;1.04;75.24;96813.81;4954440;28;19926;-77
2022/12/09 07:55:45;;;;;;;;;;;;;;;1.15;74.84;96808.41;4964964;28;20376;-76
2022/12/09 07:58:14;;;;;;;;;;;;;;;1.21;75.30;96812.63;4981380;28;19974;-76
2022/12/09 08:00:42;;;;;;;;;;;;;;;1.21;74.87;96808.09;4966287;28;20210;-76
2022/12/09 08:03:12;;;;;;;;;;;;;;;1.13;75.31;96806.00;4958655;28;19933;-77
2022/12/09 08:05:45;;;;;;;;;;;;;;;1.19;74.75;96807.56;4964886;28;19926;-77
2022/12/09 08:08:14;;;;;;;;;;;;;;;1.19;74.99;96806.78;4983148;28;19973;-77
2022/12/09 08:10:43;;;;;;;;;;;;;;;1.20;75.18;96798.47;4968987;28;19934;-76
2022/12/09 08:13:12;;;;;;;;;;;;;;;1.39;74.25;96800.50;4952328;28;19930;-77
2022/12/09 08:15:41;;;;;;;;;;;;;;;1.15;75.22;96798.50;4966471;28;20533;-77
2022/12/09 08:18:10;;;;;;;;;;;;;;;1.26;74.76;96793.88;4952369;28;19933;-77
2022/12/09 08:20:39;;;;;;;;;;;;;;;1.20;74.67;96792.31;4963556;28;19926;-76
2022/12/09 08:23:07;;;;;;;;;;;;;;;1.26;74.92;96780.50;4972499;28;19973;-76
2022/12/09 08:25:36;;;;;;;;;;;;;;;1.17;75.16;96784.84;4954634;28;20359;-77
2022/12/09 08:28:05;;;;;;;;;;;;;;;1.20;75.31;96782.41;4980121;28;19926;-76
2022/12/09 08:30:33;;;;;;;;;;;;;;;1.32;74.89;96784.72;4977959;28;20851;-77
2022/12/09 08:33:01;;;;;;;;;;;;;;;1.34;74.91;96774.56;4978887;28;19930;-77
2022/12/09 08:35:54;;;;;;;;;;;;;;;1.51;74.49;96777.63;4997118;28;19937;-77
2022/12/09 08:38:26;;;;;;;;;;;;;;;1.34;74.52;96761.19;4980401;28;20395;-77
2022/12/09 08:40:55;;;;;;;;;;;;;;;1.40;74.19;96760.06;4996945;28;20001;-77
2022/12/09 08:43:23;;;;;;;;;;;;;;;1.40;74.22;96754.72;4964854;28;20024;-77
2022/12/09 08:45:51;;;;;;;;;;;;;;;1.52;74.32;96757.00;4978090;28;19984;-77
2022/12/09 08:48:20;;;;;;;;;;;;;;;1.49;74.50;96749.53;4978293;28;20046;-77
2022/12/09 08:50:48;;;;;;;;;;;;;;;1.65;74.15;96747.50;4993553;28;19926;-77
2022/12/09 08:53:17;;;;;;;;;;;;;;;1.67;73.37;96748.06;4989049;28;19978;-77
2022/12/09 08:55:49;;;;;;;;;;;;;;;1.74;73.36;96748.50;4979410;28;19934;-76
2022/12/09 08:58:17;;;;;;;;;;;;;;;1.77;72.83;96747.94;4981467;28;20367;-77
2022/12/09 09:00:45;;;;;;;;;;;;;;;1.91;72.95;96748.88;4964132;28;19956;-77
2022/12/09 09:03:38;;;;;;;;;;;;;;;2.04;72.81;96750.09;4981165;28;19926;-78
2022/12/09 09:06:07;;;;;;;;;;;;;;;2.05;72.39;96760.50;4981118;28;19957;-76
2022/12/09 09:08:38;;;;;;;;;;;;;;;2.08;72.32;96759.94;4968477;28;20029;-78
2022/12/09 09:11:10;;;;;;;;;;;;;;;2.17;71.84;96757.44;4982224;28;19952;-78
2022/12/09 09:13:44;;;;;;;;;;;;;;;2.22;72.09;96749.34;4986839;28;20363;-77
2022/12/09 09:16:13;;;;;;;;;;;;;;;2.18;71.91;96742.94;4981074;28;19934;-76
2022/12/09 09:18:42;;;;;;;;;;;;;;;2.20;71.99;96748.03;4968263;28;19965;-77
2022/12/09 09:21:12;;;;;;;;;;;;;;;2.14;71.58;96752.66;4999848;28;20359;-77
2022/12/09 09:23:40;;;;;;;;;;;;;;;2.40;71.52;96752.34;4984115;28;19930;-76
2022/12/09 09:29:04;;;;;;;;;;;;;;;2.50;70.63;96744.97;4990355;28;19926;-76
2022/12/09 09:31:33;;;;;;;;;;;;;;;2.61;70.12;96734.94;4993583;28;19925;-76
2022/12/09 09:34:27;;;;;;;;;;;;;;;2.75;70.68;96732.31;4987270;28;19949;-76
2022/12/09 09:36:58;;;;;;;;;;;;;;;2.60;70.09;96736.78;4990856;28;20295;-75
2022/12/09 09:39:27;;;;;;;;;;;;;;;2.59;70.71;96735.19;4971404;28;19933;-76
2022/12/09 09:41:58;;;;;;;;;;;;;;;2.59;69.21;96735.19;4967270;28;19935;-76
2022/12/09 09:44:34;;;;;;;;;;;;;;;2.65;69.00;96727.88;4987176;28;20242;-76
2022/12/09 09:47:04;;;;;;;;;;;;;;;2.63;70.03;96722.81;5002429;28;19941;-76
2022/12/09 09:49:34;;;;;;;;;;;;;;;2.69;70.14;96717.38;4992437;28;19933;-76
2022/12/09 09:52:04;;;;;;;;;;;;;;;2.75;69.79;96716.22;4988609;28;20378;-76
2022/12/09 09:54:32;;;;;;;;;;;;;;;2.73;68.81;96713.84;4973903;28;19925;-77
2022/12/09 09:57:04;;;;;;;;;;;;;;;2.77;68.17;96706.00;4989708;28;19976;-76
2022/12/09 09:59:37;;;;;;;;;;;;;;;2.69;68.30;96718.19;4975455;28;19926;-76
2022/12/09 10:02:12;;;;;;;;;;;;;;;2.67;68.44;96716.91;5003486;28;19933;-76
2022/12/09 10:05:30;;;;;;;;;;;;;;;2.54;68.36;96713.81;4987050;28;19964;-76
2022/12/09 10:08:04;;;;;;;;;;;;;;;2.63;67.97;96703.25;4989681;28;19926;-76
2022/12/09 10:10:43;;;;;;;;;;;;;;;2.56;68.15;96709.00;4971000;28;19972;-76
2022/12/09 10:13:20;;;;;;;;;;;;;;;2.56;67.97;96710.88;4989786;28;19972;-77
2022/12/09 10:18:46;;;;;;;;;;;;;;;2.48;68.03;96706.94;5003830;28;19930;-77
2022/12/09 10:21:16;;;;;;;;;;;;;;;2.46;67.73;96693.03;4990943;28;20000;-77
2022/12/09 10:23:45;;;;;;;;;;;;;;;2.46;66.96;96693.03;4983863;28;19926;-76
2022/12/09 10:26:15;;;;;;;;;;;;;;;2.42;66.96;96696.56;4989695;28;19933;-76
2022/12/09 10:28:46;;;;;;;;;;;;;;;2.46;67.95;96698.41;4987881;28;20572;-77
2022/12/09 10:31:15;;;;;;;;;;;;;;;2.50;67.78;96687.88;4974137;28;19937;-78
2022/12/09 10:37:02;;;;;;;;;;;;;;;2.61;66.84;96689.34;4982640;28;19926;-76
2022/12/09 10:39:30;;;;;;;;;;;;;;;2.71;66.06;96685.72;4979935;28;19930;-76
2022/12/09 10:45:10;;;;;;;;;;;;;;;2.81;65.72;96672.94;4986188;28;19934;-76
2022/12/09 10:47:40;;;;;;;;;;;;;;;2.86;65.47;96669.41;4982626;28;19930;-75
2022/12/09 10:50:17;;;;;;;;;;;;;;;2.89;65.04;96669.63;4988158;28;19941;-75
2022/12/09 10:52:46;;;;;;;;;;;;;;;2.73;66.17;96672.81;4988070;28;19968;-76
2022/12/09 10:55:21;;;;;;;;;;;;;;;2.86;65.91;96669.41;4972311;28;19932;-75
2022/12/09 10:57:49;;;;;;;;;;;;;;;2.78;65.38;96667.38;4986443;28;20511;-76
2022/12/09 11:00:22;;;;;;;;;;;;;;;2.84;64.72;96671.59;4978916;28;19969;-76
2022/12/09 11:02:54;;;;;;;;;;;;;;;2.82;63.81;96668.38;4983413;28;20402;-75
2022/12/09 11:05:49;;;;;;;;;;;;;;;2.81;64.02;96662.22;4989905;28;19933;-76
2022/12/09 11:08:20;;;;;;;;;;;;;;;2.68;64.21;96657.59;4972894;28;19933;-75
2022/12/09 11:10:49;;;;;;;;;;;;;;;2.83;63.35;96656.59;4973002;28;19926;-75
2022/12/09 11:13:19;;;;;;;;;;;;;;;2.67;62.95;96637.25;4983741;28;19940;-75
2022/12/09 11:18:46;;;;;;;;;;;;;;;2.78;63.19;96643.25;4983049;28;19954;-76
2022/12/09 11:21:28;;;;;;;;;;;;;;;2.76;62.92;96638.16;4981940;28;19929;-76
2022/12/09 11:23:56;;;;;;;;;;;;;;;2.79;62.91;96631.44;4964387;28;19934;-76
2022/12/09 11:26:35;;;;;;;;;;;;;;;2.83;62.76;96632.44;4969466;28;19933;-76
2022/12/09 11:29:06;;;;;;;;;;;;;;;2.76;63.06;96624.75;4977895;28;20396;-76
2022/12/09 11:32:00;;;;;;;;;;;;;;;2.94;61.30;96616.97;4992972;28;19930;-76
2022/12/09 11:34:29;;;;;;;;;;;;;;;2.94;61.14;96606.25;4978691;28;21355;-76
2022/12/09 11:37:46;;;;;;;;;;;;;;;2.94;61.85;96606.25;4983477;28;19933;-76
2022/12/09 11:40:15;;;;;;;;;;;;;;;3.03;60.67;96613.31;4964379;28;19934;-75
2022/12/09 11:42:48;;;;;;;;;;;;;;;2.93;60.00;96607.31;4987637;28;19929;-76
2022/12/09 11:48:18;;;;;;;;;;;;;;;2.97;61.08;96611.81;4986003;28;19965;-75
2022/12/09 11:51:00;;;;;;;;;;;;;;;2.89;60.92;96607.13;4994526;28;19925;-76
2022/12/09 11:53:29;;;;;;;;;;;;;;;2.97;61.67;96617.16;4982662;28;20402;-76
2022/12/09 11:56:02;;;;;;;;;;;;;;;3.04;60.80;96614.91;4995519;28;19957;-76
2022/12/09 11:59:20;;;;;;;;;;;;;;;3.12;60.80;96603.50;4979082;28;20090;-76
2022/12/09 12:01:50;;;;;;;;;;;;;;;3.18;60.78;96598.84;4984642;28;19925;-76
2022/12/09 12:04:20;;;;;;;;;;;;;;;3.17;59.22;96599.13;4983757;28;19930;-75
2022/12/09 12:06:51;;;;;;;;;;;;;;;3.25;59.07;96603.81;4978072;28;19926;-76
2022/12/09 12:09:21;;;;;;;;;;;;;;;3.31;57.71;96597.28;4979805;28;20370;-77
2022/12/09 12:11:52;;;;;;;;;;;;;;;3.31;57.24;96594.59;4983410;28;19930;-76
2022/12/09 12:14:21;;;;;;;;;;;;;;;3.38;57.08;96584.25;4981278;28;20006;-76
2022/12/09 12:16:51;;;;;;;;;;;;;;;3.42;57.40;96580.69;4979175;28;19930;-76
2022/12/09 12:19:21;;;;;;;;;;;;;;;3.38;56.40;96576.19;4985721;28;19984;-75
2022/12/09 12:21:56;;;;;;;;;;;;;;;3.31;55.23;96583.88;4982003;28;19930;-75
2022/12/09 12:24:32;;;;;;;;;;;;;;;3.25;55.71;96577.78;5003825;28;20017;-77
2022/12/09 12:27:04;;;;;;;;;;;;;;;3.30;56.57;96587.63;4992220;28;19936;-76
2022/12/09 12:29:34;;;;;;;;;;;;;;;3.28;56.34;96593.28;4976501;28;20399;-77
2022/12/09 12:32:41;;;;;;;;;;;;;;;3.30;55.44;96595.66;4983569;28;19926;-76
2022/12/09 12:35:19;;;;;;;;;;;;;;;3.26;56.09;96582.06;5006407;28;19938;-78
2022/12/09 12:38:16;;;;;;;;;;;;;;;3.37;55.30;96571.94;4987578;28;19976;-78
2022/12/09 12:40:48;;;;;;;;;;;;;;;3.33;56.19;96571.72;4974072;28;19929;-77
2022/12/09 12:46:28;;;;;;;;;;;;;;;3.25;57.47;96569.75;4986898;28;19929;-77
2022/12/09 12:49:13;;;;;;;;;;;;;;;3.29;57.22;96565.34;4987534;28;19940;-77
2022/12/09 12:51:44;;;;;;;;;;;;;;;3.26;56.96;96555.22;4988010;28;19971;-78
2022/12/09 12:54:20;;;;;;;;;;;;;;;3.27;56.62;96558.69;4976568;28;19929;-77
2022/12/09 12:56:50;;;;;;;;;;;;;;;3.36;57.65;96565.78;4990112;28;19926;-78
2022/12/09 12:59:44;;;;;;;;;;;;;;;3.39;57.04;96556.31;4987943;28;19925;-77
2022/12/09 13:02:16;;;;;;;;;;;;;;;3.51;56.65;96545.88;4992633;28;19926;-78
2022/12/09 13:04:45;;;;;;;;;;;;;;;3.55;55.31;96546.06;4993446;28;20012;-78
2022/12/09 13:07:18;;;;;;;;;;;;;;;3.59;55.60;96547.06;5003876;28;19926;-77
2022/12/09 13:09:49;;;;;;;;;;;;;;;3.58;55.43;96545.50;4994627;28;20375;-78
2022/12/09 13:12:55;;;;;;;;;;;;;;;3.67;54.78;96539.13;4991396;28;19926;-78
2022/12/09 13:15:30;;;;;;;;;;;;;;;3.59;53.53;96534.44;4983857;28;19926;-78
2022/12/09 13:18:00;;;;;;;;;;;;;;;3.51;53.79;96528.97;4992974;28;20363;-77
2022/12/09 13:20:34;;;;;;;;;;;;;;;3.37;53.94;96543.19;4987648;28;19984;-77
2022/12/09 13:23:03;;;;;;;;;;;;;;;3.36;55.36;96538.13;4995654;28;19948;-78
2022/12/09 13:25:36;;;;;;;;;;;;;;;3.24;55.17;96537.81;4990676;28;19961;-77
2022/12/09 13:28:06;;;;;;;;;;;;;;;3.27;54.33;96539.91;4988232;28;20331;-77
2022/12/09 13:30:37;;;;;;;;;;;;;;;3.25;55.27;96539.41;4985227;28;19934;-77
2022/12/09 13:33:11;;;;;;;;;;;;;;;3.25;55.30;96537.53;4985467;28;19925;-77
2022/12/09 13:35:42;;;;;;;;;;;;;;;3.18;56.86;96539.78;4988590;28;19992;-77
2022/12/09 13:38:24;;;;;;;;;;;;;;;3.15;55.63;96533.16;4971023;28;19932;-77
2022/12/09 13:40:57;;;;;;;;;;;;;;;3.06;56.55;96529.56;4990124;28;19926;-76
2022/12/09 13:43:26;;;;;;;;;;;;;;;2.99;57.05;96544.47;4990671;28;20017;-77
2022/12/09 13:45:55;;;;;;;;;;;;;;;2.81;57.51;96538.84;4993386;28;19926;-77
2022/12/09 13:48:44;;;;;;;;;;;;;;;2.74;58.74;96535.75;4994650;28;19926;-77
2022/12/09 13:51:14;;;;;;;;;;;;;;;2.64;59.08;96543.97;4993130;28;19926;-76
2022/12/09 13:53:47;;;;;;;;;;;;;;;2.70;59.34;96553.50;4988714;28;20228;-77
2022/12/09 13:56:24;;;;;;;;;;;;;;;2.67;59.35;96547.97;4994133;28;19972;-76